Time;durP1;ratioP1;P1;durP2;ratioP2;P2;SDS_P1;SDS_P2;PMS_P1;PMS_P2;Temp;Humidity;BMP_temperature;BMP_pressure;BME280_temperature;BME280_humidity;BME280_pressure;Samples;Min_cycle;Max_cycle;Signal;HPM_P1;HPM_P2
2022/05/31 00:02:00;;;;;;;0.68;0.50;;;;;;;;;;5038311;28;20051;-42
2022/05/31 00:04:26;;;;;;;1.13;0.45;;;;;;;;;;5063989;28;20388;-42
2022/05/31 00:06:52;;;;;;;0.40;0.40;;;;;;;;;;5048687;28;20115;-42
2022/05/31 00:09:18;;;;;;;1.65;0.70;;;;;;;;;;5048007;28;20063;-43
2022/05/31 00:11:44;;;;;;;0.50;0.50;;;;;;;;;;5047957;28;20521;-42
2022/05/31 00:14:12;;;;;;;0.50;0.50;;;;;;;;;;5047418;28;20483;-42
2022/05/31 00:16:38;;;;;;;0.60;0.60;;;;;;;;;;5047911;28;20025;-42
2022/05/31 00:19:04;;;;;;;0.25;0.25;;;;;;;;;;5047345;28;20029;-42
2022/05/31 00:21:41;;;;;;;0.65;0.47;;;;;;;;;;5031136;28;20037;-42
2022/05/31 00:24:08;;;;;;;0.40;0.40;;;;;;;;;;5027706;28;20064;-44
2022/05/31 00:26:36;;;;;;;0.80;0.50;;;;;;;;;;5027877;28;20022;-42
2022/05/31 00:29:02;;;;;;;0.88;0.55;;;;;;;;;;5027580;28;20066;-42
2022/05/31 00:31:29;;;;;;;0.40;0.40;;;;;;;;;;5028381;28;20025;-42
2022/05/31 00:33:55;;;;;;;0.30;0.30;;;;;;;;;;5027759;28;20463;-42
2022/05/31 00:36:21;;;;;;;1.08;0.60;;;;;;;;;;5027977;28;20056;-42
2022/05/31 00:38:48;;;;;;;0.55;0.40;;;;;;;;;;5040712;28;20025;-43
2022/05/31 00:41:24;;;;;;;0.60;0.50;;;;;;;;;;5046721;28;20029;-42
2022/05/31 00:43:52;;;;;;;0.30;0.30;;;;;;;;;;5047247;28;20633;-42
2022/05/31 00:46:20;;;;;;;0.55;0.50;;;;;;;;;;5047047;28;20040;-43
2022/05/31 00:48:49;;;;;;;0.63;0.45;;;;;;;;;;5047124;28;20044;-42
2022/05/31 00:51:16;;;;;;;1.05;0.50;;;;;;;;;;5046859;28;20037;-42
2022/05/31 00:53:50;;;;;;;0.47;0.45;;;;;;;;;;5046406;28;20028;-43
2022/05/31 00:56:21;;;;;;;0.98;0.40;;;;;;;;;;5046692;28;20033;-42
2022/05/31 00:59:07;;;;;;;1.00;0.40;;;;;;;;;;5047190;28;20039;-42
2022/05/31 01:01:35;;;;;;;0.57;0.40;;;;;;;;;;5046753;28;20036;-43
2022/05/31 01:04:03;;;;;;;0.40;0.40;;;;;;;;;;5046159;28;20051;-43
2022/05/31 01:06:29;;;;;;;0.40;0.40;;;;;;;;;;5047662;28;20021;-42
2022/05/31 01:08:57;;;;;;;0.60;0.60;;;;;;;;;;5047702;28;20025;-42
2022/05/31 01:11:24;;;;;;;0.60;0.60;;;;;;;;;;5046532;28;20021;-42
2022/05/31 01:13:50;;;;;;;0.52;0.50;;;;;;;;;;5046617;28;20029;-43
2022/05/31 01:16:17;;;;;;;0.40;0.40;;;;;;;;;;5046463;28;20656;-42
2022/05/31 01:18:43;;;;;;;0.60;0.60;;;;;;;;;;5046767;28;20029;-42
2022/05/31 01:21:09;;;;;;;0.88;0.70;;;;;;;;;;5046250;28;20456;-42
2022/05/31 01:23:43;;;;;;;0.70;0.50;;;;;;;;;;5046689;28;20126;-43
2022/05/31 01:26:09;;;;;;;;;;;;;;;;;;5046569;28;20059;-43
2022/05/31 01:28:42;;;;;;;0.50;0.50;;;;;;;;;;5046449;28;20542;-42
2022/05/31 01:31:20;;;;;;;0.93;0.75;;;;;;;;;;5034021;28;20033;-42
2022/05/31 01:33:49;;;;;;;0.68;0.45;;;;;;;;;;5026502;28;20100;-42
2022/05/31 01:36:21;;;;;;;0.55;0.50;;;;;;;;;;5037191;28;20037;-42
2022/05/31 01:38:55;;;;;;;0.45;0.45;;;;;;;;;;5046473;28;20512;-42
2022/05/31 01:41:28;;;;;;;0.60;0.60;;;;;;;;;;5045732;28;20139;-42
2022/05/31 01:43:54;;;;;;;1.13;0.50;;;;;;;;;;5046351;28;20742;-42
2022/05/31 01:46:23;;;;;;;0.40;0.40;;;;;;;;;;5046138;28;20435;-42
2022/05/31 01:48:50;;;;;;;0.43;0.40;;;;;;;;;;5046297;28;20079;-42
2022/05/31 01:51:16;;;;;;;0.30;0.30;;;;;;;;;;5045047;28;20044;-43
2022/05/31 01:53:42;;;;;;;1.75;0.47;;;;;;;;;;5046417;28;20158;-43
2022/05/31 01:56:09;;;;;;;0.70;0.63;;;;;;;;;;5045660;28;20040;-42
2022/05/31 01:58:36;;;;;;;0.60;0.50;;;;;;;;;;5045938;28;20029;-43
2022/05/31 02:01:03;;;;;;;3.55;0.60;;;;;;;;;;5045989;28;20029;-43
2022/05/31 02:03:30;;;;;;;0.95;0.50;;;;;;;;;;5046676;28;20570;-42
2022/05/31 02:05:56;;;;;;;0.50;0.50;;;;;;;;;;5046193;28;20044;-42
2022/05/31 02:08:23;;;;;;;0.47;0.47;;;;;;;;;;5045758;28;20017;-42
2022/05/31 02:10:50;;;;;;;1.17;0.80;;;;;;;;;;5045447;28;20538;-42
2022/05/31 02:13:17;;;;;;;0.68;0.60;;;;;;;;;;5045009;28;20032;-42
2022/05/31 02:15:43;;;;;;;0.50;0.50;;;;;;;;;;5045855;28;20134;-42
2022/05/31 02:18:12;;;;;;;1.08;0.60;;;;;;;;;;5045759;28;20476;-42
2022/05/31 02:20:39;;;;;;;0.80;0.60;;;;;;;;;;5046036;28;20136;-43
2022/05/31 02:23:05;;;;;;;0.65;0.52;;;;;;;;;;5045893;28;20102;-43
2022/05/31 02:25:31;;;;;;;0.63;0.60;;;;;;;;;;5045969;28;20048;-43
2022/05/31 02:27:58;;;;;;;0.52;0.50;;;;;;;;;;5038297;28;20034;-42
2022/05/31 02:30:24;;;;;;;1.58;0.63;;;;;;;;;;5025652;28;20040;-42
2022/05/31 02:32:50;;;;;;;0.73;0.60;;;;;;;;;;5026130;28;20413;-43
2022/05/31 02:35:16;;;;;;;0.68;0.60;;;;;;;;;;5025683;28;20095;-43
2022/05/31 02:37:42;;;;;;;1.17;0.70;;;;;;;;;;5025519;28;20064;-43
2022/05/31 02:40:09;;;;;;;0.70;0.40;;;;;;;;;;5025858;28;20021;-43
2022/05/31 02:42:37;;;;;;;0.65;0.55;;;;;;;;;;5033418;28;20048;-43
2022/05/31 02:45:05;;;;;;;0.73;0.47;;;;;;;;;;5045729;28;20431;-43
2022/05/31 02:47:31;;;;;;;0.60;0.57;;;;;;;;;;5045635;28;20025;-43
2022/05/31 02:49:57;;;;;;;0.93;0.50;;;;;;;;;;5046361;28;20052;-42
2022/05/31 02:52:23;;;;;;;2.40;0.50;;;;;;;;;;5045353;28;20960;-42
2022/05/31 02:54:49;;;;;;;1.25;0.70;;;;;;;;;;5043467;28;20501;-42
2022/05/31 02:57:15;;;;;;;0.57;0.57;;;;;;;;;;5045428;28;20111;-42
2022/05/31 02:59:41;;;;;;;0.60;0.60;;;;;;;;;;5045884;28;20037;-43
2022/05/31 03:02:08;;;;;;;0.60;0.60;;;;;;;;;;5045202;28;20408;-42
2022/05/31 03:04:34;;;;;;;1.38;0.70;;;;;;;;;;5048674;28;20488;-42
2022/05/31 03:07:03;;;;;;;2.92;0.77;;;;;;;;;;5049066;28;20025;-42
2022/05/31 03:09:31;;;;;;;0.57;0.57;;;;;;;;;;5049052;28;20037;-42
2022/05/31 03:11:59;;;;;;;0.75;0.63;;;;;;;;;;5049661;28;20695;-42
2022/05/31 03:14:28;;;;;;;0.90;0.60;;;;;;;;;;5049595;28;20048;-42
2022/05/31 03:17:00;;;;;;;0.55;0.50;;;;;;;;;;5048720;28;20026;-43
2022/05/31 03:19:30;;;;;;;0.77;0.60;;;;;;;;;;5049350;28;20017;-43
2022/05/31 03:21:57;;;;;;;1.88;0.60;;;;;;;;;;5049428;28;20500;-42
2022/05/31 03:24:25;;;;;;;0.55;0.55;;;;;;;;;;5044263;28;20563;-42
2022/05/31 03:26:52;;;;;;;1.00;0.60;;;;;;;;;;5029683;28;20033;-42
2022/05/31 03:29:19;;;;;;;1.65;0.85;;;;;;;;;;5028620;28;20034;-42
2022/05/31 03:31:45;;;;;;;0.98;0.70;;;;;;;;;;5028329;28;20035;-43
2022/05/31 03:34:11;;;;;;;1.13;0.70;;;;;;;;;;5028340;28;20437;-43
2022/05/31 03:36:37;;;;;;;2.88;0.80;;;;;;;;;;5028488;28;20032;-42
2022/05/31 03:39:05;;;;;;;0.85;0.60;;;;;;;;;;5028439;28;20109;-43
2022/05/31 03:41:34;;;;;;;2.08;0.80;;;;;;;;;;5029041;28;20504;-42
2022/05/31 03:44:00;;;;;;;2.28;0.55;;;;;;;;;;5028483;28;20109;-42
2022/05/31 03:46:27;;;;;;;1.30;0.55;;;;;;;;;;5028950;28;20028;-42
2022/05/31 03:48:53;;;;;;;2.22;0.80;;;;;;;;;;5028618;28;20087;-42
2022/05/31 03:51:19;;;;;;;1.27;0.60;;;;;;;;;;5028158;28;20447;-42
2022/05/31 03:53:45;;;;;;;3.45;0.85;;;;;;;;;;5028796;28;20038;-43
2022/05/31 03:56:12;;;;;;;1.25;0.77;;;;;;;;;;5046068;28;20155;-42
2022/05/31 03:58:39;;;;;;;1.15;0.60;;;;;;;;;;5048395;28;20017;-42
2022/05/31 04:01:05;;;;;;;0.60;0.60;;;;;;;;;;5047361;28;20049;-42
2022/05/31 04:03:31;;;;;;;0.95;0.55;;;;;;;;;;5048164;28;20021;-42
2022/05/31 04:05:57;;;;;;;0.85;0.60;;;;;;;;;;5047462;28;20025;-43
2022/05/31 04:08:24;;;;;;;1.25;0.70;;;;;;;;;;5047925;28;20037;-41
2022/05/31 04:10:51;;;;;;;1.17;0.77;;;;;;;;;;5044654;28;20048;-42
2022/05/31 04:13:17;;;;;;;0.47;0.45;;;;;;;;;;5047799;28;20040;-42
2022/05/31 04:15:44;;;;;;;0.70;0.60;;;;;;;;;;5047888;28;20083;-42
2022/05/31 04:18:11;;;;;;;0.60;0.60;;;;;;;;;;5047662;28;20116;-42
2022/05/31 04:20:37;;;;;;;0.90;0.60;;;;;;;;;;5047906;28;20402;-42
2022/05/31 04:25:48;;;;;;;0.40;0.40;;;;;;;;;;5040163;28;20047;-42
2022/05/31 04:28:15;;;;;;;2.03;0.90;;;;;;;;;;5045885;28;20740;-43
2022/05/31 04:30:47;;;;;;;0.73;0.50;;;;;;;;;;5047569;28;20409;-42
2022/05/31 04:33:13;;;;;;;1.42;0.60;;;;;;;;;;5046467;28;20532;-43
2022/05/31 04:35:39;;;;;;;0.70;0.50;;;;;;;;;;5047455;28;20057;-43
2022/05/31 04:38:05;;;;;;;0.60;0.50;;;;;;;;;;5047238;28;20826;-42
2022/05/31 04:40:31;;;;;;;0.85;0.55;;;;;;;;;;5045713;28;20492;-43
2022/05/31 04:42:57;;;;;;;1.90;0.75;;;;;;;;;;5047946;28;20025;-42
2022/05/31 04:45:23;;;;;;;1.33;0.90;;;;;;;;;;5047004;28;20508;-42
2022/05/31 04:47:49;;;;;;;1.05;0.90;;;;;;;;;;5047414;28;20516;-41
2022/05/31 04:50:15;;;;;;;1.35;0.70;;;;;;;;;;5046952;28;20044;-42
2022/05/31 04:52:42;;;;;;;0.60;0.60;;;;;;;;;;5040895;28;20079;-42
2022/05/31 04:55:08;;;;;;;2.55;0.85;;;;;;;;;;5026581;28;20033;-43
2022/05/31 04:57:35;;;;;;;2.22;0.93;;;;;;;;;;5027095;28;20112;-42
2022/05/31 05:00:01;;;;;;;2.35;1.17;;;;;;;;;;5032535;28;20031;-42
2022/05/31 05:02:28;;;;;;;1.05;0.80;;;;;;;;;;5058055;28;20056;-45
2022/05/31 05:04:54;;;;;;;1.50;0.90;;;;;;;;;;5047240;28;20527;-42
2022/05/31 05:07:20;;;;;;;2.58;1.00;;;;;;;;;;5045760;28;20646;-43
2022/05/31 05:09:46;;;;;;;1.90;0.90;;;;;;;;;;5046965;28;20037;-43
2022/05/31 05:12:12;;;;;;;1.08;0.70;;;;;;;;;;5046579;28;20139;-43
2022/05/31 05:14:38;;;;;;;1.02;0.70;;;;;;;;;;5046779;28;20071;-42
2022/05/31 05:17:04;;;;;;;1.73;0.85;;;;;;;;;;5046450;28;20500;-42
2022/05/31 05:19:32;;;;;;;1.05;0.80;;;;;;;;;;5046838;28;20029;-43
2022/05/31 05:21:58;;;;;;;2.22;0.98;;;;;;;;;;5053993;28;20503;-43
2022/05/31 05:24:24;;;;;;;2.83;1.10;;;;;;;;;;5048207;28;20029;-42
2022/05/31 05:26:50;;;;;;;2.90;1.10;;;;;;;;;;5058258;28;20020;-43
2022/05/31 05:32:05;;;;;;;2.97;1.27;;;;;;;;;;5066391;28;20075;-43
2022/05/31 05:34:31;;;;;;;2.05;1.10;;;;;;;;;;5054530;28;20108;-42
2022/05/31 05:36:57;;;;;;;2.33;1.02;;;;;;;;;;5050606;28;20487;-43
2022/05/31 05:39:23;;;;;;;0.95;0.70;;;;;;;;;;5028426;28;20026;-44
2022/05/31 05:41:49;;;;;;;1.20;1.10;;;;;;;;;;5039727;28;20786;-42
2022/05/31 05:44:15;;;;;;;1.17;0.90;;;;;;;;;;5044627;28;20037;-42
2022/05/31 05:46:41;;;;;;;1.83;1.00;;;;;;;;;;5033913;28;20384;-42
2022/05/31 05:49:08;;;;;;;0.90;0.70;;;;;;;;;;5050955;28;20077;-43
2022/05/31 05:51:35;;;;;;;1.63;0.80;;;;;;;;;;5055426;28;20029;-42
2022/05/31 05:54:02;;;;;;;2.40;0.73;;;;;;;;;;5046020;28;20037;-44
2022/05/31 05:56:29;;;;;;;2.83;0.93;;;;;;;;;;5026321;28;20032;-42
2022/05/31 05:58:55;;;;;;;1.67;0.80;;;;;;;;;;5043332;28;20040;-42
2022/05/31 06:01:33;;;;;;;1.77;0.90;;;;;;;;;;5046240;28;20067;-42
2022/05/31 06:04:22;;;;;;;2.45;0.93;;;;;;;;;;5037139;28;20029;-42
2022/05/31 06:06:53;;;;;;;1.33;0.80;;;;;;;;;;5043068;28;20093;-42
2022/05/31 06:09:22;;;;;;;1.27;0.80;;;;;;;;;;5044729;28;20044;-42
2022/05/31 06:11:50;;;;;;;1.15;0.77;;;;;;;;;;5048551;28;20040;-41
2022/05/31 06:14:22;;;;;;;1.85;0.70;;;;;;;;;;5055598;28;20112;-41
2022/05/31 06:16:50;;;;;;;1.55;0.80;;;;;;;;;;5045573;28;20115;-41
2022/05/31 06:19:22;;;;;;;1.70;1.10;;;;;;;;;;5031107;28;20036;-42
2022/05/31 06:21:50;;;;;;;1.25;0.90;;;;;;;;;;5044975;28;20112;-42
2022/05/31 06:24:16;;;;;;;0.90;0.70;;;;;;;;;;5045733;28;20025;-42
2022/05/31 06:26:42;;;;;;;1.70;0.90;;;;;;;;;;5048457;28;20098;-42
2022/05/31 06:29:08;;;;;;;2.05;0.95;;;;;;;;;;5046178;28;20496;-43
2022/05/31 06:31:35;;;;;;;1.55;0.80;;;;;;;;;;5045638;28;20096;-43
2022/05/31 06:34:01;;;;;;;1.67;1.00;;;;;;;;;;5051121;28;20479;-41
2022/05/31 06:36:27;;;;;;;2.53;1.00;;;;;;;;;;5052116;28;20029;-42
2022/05/31 06:38:53;;;;;;;1.95;0.70;;;;;;;;;;5049902;28;20407;-42
2022/05/31 06:41:19;;;;;;;1.40;0.73;;;;;;;;;;5049947;28;20112;-42
2022/05/31 06:43:45;;;;;;;1.48;0.75;;;;;;;;;;5049722;28;20029;-42
2022/05/31 06:46:12;;;;;;;0.85;0.77;;;;;;;;;;5049368;28;20052;-41
2022/05/31 06:48:38;;;;;;;1.45;0.95;;;;;;;;;;5049940;28;20053;-42
2022/05/31 06:51:05;;;;;;;2.35;0.73;;;;;;;;;;5053893;28;20442;-42
2022/05/31 06:59:01;;;;;;;1.60;0.70;;;;;;;;;;5045419;28;20048;-42
2022/05/31 07:01:31;;;;;;;2.35;0.60;;;;;;;;;;5025417;28;20057;-41
2022/05/31 07:04:01;;;;;;;3.95;0.80;;;;;;;;;;5027150;28;20037;-41
2022/05/31 07:06:28;;;;;;;3.10;0.80;;;;;;;;;;5043819;28;20461;-41
2022/05/31 07:08:54;;;;;;;2.05;0.88;;;;;;;;;;5027573;28;20037;-41
2022/05/31 07:11:22;;;;;;;1.55;0.90;;;;;;;;;;5048134;28;20028;-41
2022/05/31 07:13:49;;;;;;;1.77;0.73;;;;;;;;;;5048145;28;20029;-42
2022/05/31 07:16:15;;;;;;;2.00;1.02;;;;;;;;;;5048002;28;20237;-41
2022/05/31 07:18:42;;;;;;;0.55;0.55;;;;;;;;;;5042748;28;20116;-42
2022/05/31 07:21:08;;;;;;;1.02;0.70;;;;;;;;;;5040065;28;20115;-41
2022/05/31 07:23:34;;;;;;;0.75;0.55;;;;;;;;;;5037870;28;20025;-42
2022/05/31 07:26:02;;;;;;;0.73;0.73;;;;;;;;;;5037886;28;20063;-41
2022/05/31 07:28:28;;;;;;;0.93;0.80;;;;;;;;;;5036093;28;20036;-41
2022/05/31 07:30:54;;;;;;;1.20;0.68;;;;;;;;;;5036735;28;20043;-41
2022/05/31 07:33:20;;;;;;;0.70;0.65;;;;;;;;;;5037618;28;20033;-42
2022/05/31 07:35:47;;;;;;;0.98;0.60;;;;;;;;;;5037820;28;20032;-42
2022/05/31 07:38:13;;;;;;;0.65;0.55;;;;;;;;;;5034694;28;20039;-41
2022/05/31 07:40:39;;;;;;;0.50;0.50;;;;;;;;;;5038007;28;20029;-41
2022/05/31 07:43:05;;;;;;;0.60;0.47;;;;;;;;;;5037113;28;20120;-41
2022/05/31 07:45:31;;;;;;;0.30;0.30;;;;;;;;;;5037839;28;20032;-41
2022/05/31 07:47:58;;;;;;;0.50;0.50;;;;;;;;;;5037362;28;20040;-42
2022/05/31 07:50:24;;;;;;;0.52;0.52;;;;;;;;;;5028289;28;20135;-41
2022/05/31 07:52:50;;;;;;;0.60;0.50;;;;;;;;;;5038361;28;20111;-41
2022/05/31 07:55:16;;;;;;;0.43;0.40;;;;;;;;;;5037021;28;20044;-42
2022/05/31 08:00:28;;;;;;;0.60;0.45;;;;;;;;;;5030731;28;20036;-41
2022/05/31 08:02:55;;;;;;;0.93;0.60;;;;;;;;;;5036797;28;20389;-41
2022/05/31 08:05:21;;;;;;;0.63;0.43;;;;;;;;;;5034370;28;20021;-41
2022/05/31 08:07:49;;;;;;;1.17;0.40;;;;;;;;;;5035241;28;20029;-41
2022/05/31 08:10:17;;;;;;;0.88;0.50;;;;;;;;;;5032268;28;20428;-41
2022/05/31 08:12:44;;;;;;;0.68;0.47;;;;;;;;;;5032353;28;20523;-42
2022/05/31 08:15:10;;;;;;;0.50;0.50;;;;;;;;;;5034304;28;20029;-42
2022/05/31 08:17:36;;;;;;;0.40;0.40;;;;;;;;;;5037671;28;20060;-41
2022/05/31 08:20:04;;;;;;;2.83;0.50;;;;;;;;;;5031361;28;20455;-41
2022/05/31 08:22:30;;;;;;;0.73;0.60;;;;;;;;;;5036593;28;20033;-42
2022/05/31 08:24:56;;;;;;;0.60;0.60;;;;;;;;;;5035759;28;20461;-42
2022/05/31 08:27:23;;;;;;;0.60;0.50;;;;;;;;;;5037088;28;20037;-42
2022/05/31 08:29:49;;;;;;;0.55;0.32;;;;;;;;;;5033193;28;20091;-41
2022/05/31 08:32:15;;;;;;;0.35;0.35;;;;;;;;;;5034344;28;20041;-42
2022/05/31 08:34:41;;;;;;;0.95;0.65;;;;;;;;;;5034388;28;20107;-42
2022/05/31 08:37:07;;;;;;;0.95;0.63;;;;;;;;;;5036350;28;20064;-41
2022/05/31 08:39:33;;;;;;;0.75;0.50;;;;;;;;;;5032159;28;20415;-42
2022/05/31 08:42:06;;;;;;;0.40;0.40;;;;;;;;;;5035637;28;20045;-42
2022/05/31 08:44:32;;;;;;;1.13;0.70;;;;;;;;;;5035338;28;20060;-41
2022/05/31 08:47:13;;;;;;;0.80;0.60;;;;;;;;;;5036565;28;20076;-43
2022/05/31 08:52:45;;;;;;;0.57;0.57;;;;;;;;;;5035899;28;20554;-42
2022/05/31 08:58:16;;;;;;;0.80;0.50;;;;;;;;;;5034692;28;21040;-42
2022/05/31 09:00:44;;;;;;;0.30;0.30;;;;;;;;;;5034306;28;20024;-43
2022/05/31 09:03:16;;;;;;;2.13;0.50;;;;;;;;;;5037521;28;20056;-42
2022/05/31 09:05:48;;;;;;;0.52;0.47;;;;;;;;;;5035915;28;20541;-42
2022/05/31 09:08:24;;;;;;;0.40;0.40;;;;;;;;;;5033448;28;20516;-43
2022/05/31 09:11:09;;;;;;;0.55;0.50;;;;;;;;;;5034686;28;20455;-44
2022/05/31 09:13:36;;;;;;;0.77;0.70;;;;;;;;;;5034562;28;20063;-43
2022/05/31 09:16:02;;;;;;;2.20;0.60;;;;;;;;;;5034643;28;20143;-43
2022/05/31 09:18:28;;;;;;;1.10;0.60;;;;;;;;;;5033134;28;20574;-43
2022/05/31 09:20:54;;;;;;;0.45;0.45;;;;;;;;;;5034482;28;20025;-43
2022/05/31 09:23:25;;;;;;;0.68;0.60;;;;;;;;;;5037274;28;20526;-43
2022/05/31 09:25:57;;;;;;;0.73;0.50;;;;;;;;;;5037743;28;20039;-44
2022/05/31 09:28:35;;;;;;;1.15;0.60;;;;;;;;;;5033446;28;20032;-44
2022/05/31 09:31:02;;;;;;;1.08;0.70;;;;;;;;;;5037743;28;20116;-43
2022/05/31 09:33:38;;;;;;;1.20;0.55;;;;;;;;;;5037131;28;20041;-43
2022/05/31 09:36:12;;;;;;;0.85;0.60;;;;;;;;;;5033847;28;20037;-43
2022/05/31 09:38:38;;;;;;;;;;;;;;;;;;5036102;28;20033;-43
2022/05/31 09:41:21;;;;;;;0.73;0.45;;;;;;;;;;5036266;28;19912;-43
2022/05/31 09:44:20;;;;;;;0.68;0.60;;;;;;;;;;5038700;28;20025;-43
2022/05/31 09:47:13;;;;;;;1.45;0.50;;;;;;;;;;5037158;28;20511;-44
2022/05/31 09:49:44;;;;;;;0.93;0.50;;;;;;;;;;5032753;28;20780;-43
2022/05/31 09:52:31;;;;;;;0.55;0.55;;;;;;;;;;5038285;28;20029;-44
2022/05/31 09:58:08;;;;;;;0.55;0.50;;;;;;;;;;5038062;28;20420;-43
2022/05/31 10:00:36;;;;;;;0.52;0.40;;;;;;;;;;5035678;28;20032;-42
2022/05/31 10:03:11;;;;;;;0.60;0.50;;;;;;;;;;5040583;28;20029;-43
2022/05/31 10:05:38;;;;;;;0.70;0.47;;;;;;;;;;5036579;28;20041;-43
2022/05/31 10:08:12;;;;;;;0.85;0.50;;;;;;;;;;5036193;28;20033;-43
2022/05/31 10:10:44;;;;;;;0.47;0.40;;;;;;;;;;5035292;28;20037;-43
2022/05/31 10:13:10;;;;;;;1.67;0.60;;;;;;;;;;5040380;28;20033;-43
2022/05/31 10:15:37;;;;;;;0.50;0.50;;;;;;;;;;5040620;28;20385;-43
2022/05/31 10:18:04;;;;;;;0.65;0.63;;;;;;;;;;5041116;28;20044;-43
2022/05/31 10:20:31;;;;;;;0.43;0.43;;;;;;;;;;5038809;28;21255;-43
2022/05/31 10:22:59;;;;;;;0.70;0.50;;;;;;;;;;5041219;28;20036;-44
2022/05/31 10:25:28;;;;;;;0.73;0.50;;;;;;;;;;5040122;28;20055;-43
2022/05/31 10:27:58;;;;;;;0.60;0.45;;;;;;;;;;5042073;28;20373;-44
2022/05/31 10:30:25;;;;;;;0.73;0.60;;;;;;;;;;5049057;28;20023;-43
2022/05/31 10:32:53;;;;;;;1.13;0.65;;;;;;;;;;5049796;28;20029;-43
2022/05/31 10:35:22;;;;;;;0.55;0.55;;;;;;;;;;5050231;28;20025;-43
2022/05/31 10:37:59;;;;;;;0.77;0.47;;;;;;;;;;5050849;28;20040;-42
2022/05/31 10:40:27;;;;;;;0.88;0.40;;;;;;;;;;5045905;28;20029;-43
2022/05/31 10:42:57;;;;;;;0.52;0.47;;;;;;;;;;5047381;28;20021;-44
2022/05/31 10:45:27;;;;;;;0.50;0.50;;;;;;;;;;5051757;28;20500;-43
2022/05/31 10:47:56;;;;;;;0.50;0.50;;;;;;;;;;5035072;28;20026;-43
2022/05/31 10:50:24;;;;;;;0.85;0.60;;;;;;;;;;5037002;28;20025;-43
2022/05/31 10:53:03;;;;;;;1.35;0.70;;;;;;;;;;5029283;28;20033;-43
2022/05/31 10:55:37;;;;;;;1.00;0.70;;;;;;;;;;5055075;28;20025;-42
2022/05/31 10:58:22;;;;;;;0.93;0.82;;;;;;;;;;5067110;28;20040;-43
2022/05/31 11:00:48;;;;;;;1.20;0.70;;;;;;;;;;5058765;28;20052;-44
2022/05/31 11:03:17;;;;;;;2.72;0.88;;;;;;;;;;5065466;28;20024;-45
2022/05/31 11:05:46;;;;;;;2.08;0.98;;;;;;;;;;5069014;28;20369;-44
2022/05/31 11:11:29;;;;;;;2.22;1.10;;;;;;;;;;5031188;28;20510;-45
2022/05/31 11:13:55;;;;;;;2.10;1.13;;;;;;;;;;5028094;28;20030;-46
2022/05/31 11:16:33;;;;;;;1.70;1.15;;;;;;;;;;5029990;28;20482;-44
2022/05/31 11:19:16;;;;;;;1.65;1.33;;;;;;;;;;5052182;28;20048;-44
2022/05/31 11:21:42;;;;;;;1.88;0.90;;;;;;;;;;5068862;28;20023;-45
2022/05/31 11:24:26;;;;;;;0.98;0.82;;;;;;;;;;5067753;28;20075;-44
2022/05/31 11:27:01;;;;;;;1.58;0.80;;;;;;;;;;5068572;28;20028;-44
2022/05/31 11:29:38;;;;;;;1.13;0.77;;;;;;;;;;5068536;28;20021;-45
2022/05/31 11:32:07;;;;;;;1.00;0.82;;;;;;;;;;5068325;28;20052;-44
2022/05/31 11:35:03;;;;;;;1.23;0.80;;;;;;;;;;5065523;28;20041;-44
2022/05/31 11:37:48;;;;;;;0.90;0.70;;;;;;;;;;5051935;28;20048;-46
2022/05/31 11:40:23;;;;;;;1.10;0.70;;;;;;;;;;5028458;28;20030;-44
2022/05/31 11:43:11;;;;;;;0.65;0.50;;;;;;;;;;5031026;28;20059;-44
2022/05/31 11:45:42;;;;;;;0.75;0.68;;;;;;;;;;5048411;28;20377;-45
2022/05/31 11:48:25;;;;;;;0.65;0.60;;;;;;;;;;5035324;28;20032;-44
2022/05/31 11:50:54;;;;;;;1.13;0.70;;;;;;;;;;5047412;28;20091;-46
2022/05/31 11:53:26;;;;;;;0.60;0.60;;;;;;;;;;5030595;28;20021;-44
2022/05/31 11:55:58;;;;;;;1.00;0.60;;;;;;;;;;5028326;28;20088;-47
2022/05/31 11:58:24;;;;;;;1.00;0.60;;;;;;;;;;5031075;28;20032;-45
2022/05/31 12:00:51;;;;;;;1.42;0.73;;;;;;;;;;5048637;28;20033;-43
2022/05/31 12:03:29;;;;;;;0.60;0.50;;;;;;;;;;5048447;28;20055;-44
2022/05/31 12:06:02;;;;;;;0.80;0.80;;;;;;;;;;5047593;28;20040;-44
2022/05/31 12:08:34;;;;;;;0.63;0.63;;;;;;;;;;5045761;28;20033;-44
2022/05/31 12:11:05;;;;;;;1.05;0.60;;;;;;;;;;5038226;28;20127;-44
2022/05/31 12:13:35;;;;;;;0.82;0.75;;;;;;;;;;5046021;28;20079;-44
2022/05/31 12:16:03;;;;;;;0.93;0.65;;;;;;;;;;5045271;28;20036;-43
2022/05/31 12:18:35;;;;;;;0.50;0.50;;;;;;;;;;5026430;28;20028;-46
2022/05/31 12:21:04;;;;;;;0.40;0.40;;;;;;;;;;5026235;28;20104;-44
2022/05/31 12:23:49;;;;;;;0.75;0.50;;;;;;;;;;5027173;28;20056;-45
2022/05/31 12:26:27;;;;;;;0.40;0.40;;;;;;;;;;5029701;28;20555;-46
2022/05/31 12:29:16;;;;;;;0.50;0.50;;;;;;;;;;5046310;28;20028;-45
2022/05/31 12:31:43;;;;;;;0.93;0.50;;;;;;;;;;5044122;28;20471;-47
2022/05/31 12:34:11;;;;;;;0.50;0.50;;;;;;;;;;5045816;28;20032;-45
2022/05/31 12:36:56;;;;;;;0.95;0.60;;;;;;;;;;5044088;28;20044;-44
2022/05/31 12:39:27;;;;;;;0.90;0.65;;;;;;;;;;5045437;28;20047;-45
2022/05/31 12:41:54;;;;;;;0.40;0.40;;;;;;;;;;5046276;28;20130;-45
2022/05/31 12:44:33;;;;;;;0.50;0.50;;;;;;;;;;5045782;28;20404;-45
2022/05/31 12:47:18;;;;;;;0.70;0.45;;;;;;;;;;5048959;28;20093;-47
2022/05/31 12:49:54;;;;;;;0.70;0.70;;;;;;;;;;5041214;28;20033;-46
2022/05/31 12:54:55;;;;;;;0.60;0.60;;;;;;;;;;5042929;28;20029;-47
2022/05/31 13:00:34;;;;;;;1.00;0.63;;;;;;;;;;5053410;28;20025;-45
2022/05/31 13:03:01;;;;;;;0.77;0.60;;;;;;;;;;5050013;28;20029;-46
2022/05/31 13:05:57;;;;;;;0.98;0.60;;;;;;;;;;5046729;28;20029;-46
2022/05/31 13:08:43;;;;;;;0.60;0.60;;;;;;;;;;5046195;28;20025;-45
2022/05/31 13:19:38;;;;;;;0.63;0.50;;;;;;;;;;5047048;28;20553;-45
2022/05/31 13:22:09;;;;;;;0.50;0.50;;;;;;;;;;5046328;28;20027;-47
2022/05/31 13:25:04;;;;;;;0.50;0.50;;;;;;;;;;5046589;28;20029;-47
2022/05/31 13:27:34;;;;;;;1.20;0.80;;;;;;;;;;5050162;28;20060;-45
2022/05/31 13:30:02;;;;;;;0.57;0.57;;;;;;;;;;5046553;28;20631;-47
2022/05/31 13:32:32;;;;;;;0.60;0.60;;;;;;;;;;5046283;28;20025;-46
2022/05/31 13:34:59;;;;;;;0.85;0.52;;;;;;;;;;5046053;28;20021;-46
2022/05/31 13:37:25;;;;;;;1.20;0.50;;;;;;;;;;5045829;28;20033;-47
2022/05/31 13:39:51;;;;;;;0.75;0.60;;;;;;;;;;5046937;28;20533;-45
2022/05/31 13:42:21;;;;;;;0.40;0.40;;;;;;;;;;5046555;28;20055;-46
2022/05/31 13:44:47;;;;;;;0.70;0.50;;;;;;;;;;5046845;28;20071;-48
2022/05/31 13:47:17;;;;;;;0.50;0.50;;;;;;;;;;5028652;28;20030;-45
2022/05/31 13:49:45;;;;;;;0.77;0.50;;;;;;;;;;5026652;28;20053;-45
2022/05/31 13:52:27;;;;;;;0.52;0.50;;;;;;;;;;5025343;28;20044;-48
2022/05/31 13:54:55;;;;;;;0.50;0.50;;;;;;;;;;5026216;28;20041;-47
2022/05/31 13:57:24;;;;;;;0.55;0.52;;;;;;;;;;5045282;28;20579;-45
2022/05/31 13:59:52;;;;;;;0.60;0.60;;;;;;;;;;5046180;28;20024;-47
2022/05/31 14:02:24;;;;;;;2.72;0.77;;;;;;;;;;5046328;28;20087;-47
2022/05/31 14:04:55;;;;;;;0.60;0.60;;;;;;;;;;5046355;28;20017;-45
2022/05/31 14:07:23;;;;;;;0.55;0.40;;;;;;;;;;5062896;28;20036;-45
2022/05/31 14:09:54;;;;;;;0.57;0.57;;;;;;;;;;5066697;28;20025;-45
2022/05/31 14:12:21;;;;;;;0.50;0.40;;;;;;;;;;5069287;28;20089;-48
2022/05/31 14:14:48;;;;;;;0.57;0.57;;;;;;;;;;5079732;28;20495;-45
2022/05/31 14:17:34;;;;;;;2.47;0.60;;;;;;;;;;5085581;28;20517;-46
2022/05/31 14:20:00;;;;;;;3.25;0.70;;;;;;;;;;5045470;28;20120;-45
2022/05/31 14:22:30;;;;;;;5.22;0.90;;;;;;;;;;5045332;28;20413;-46
2022/05/31 14:24:57;;;;;;;0.88;0.70;;;;;;;;;;5045431;28;20049;-45
2022/05/31 14:27:26;;;;;;;0.95;0.60;;;;;;;;;;5045349;28;20086;-46
2022/05/31 14:30:18;;;;;;;0.70;0.70;;;;;;;;;;5052761;28;20028;-45
2022/05/31 14:32:48;;;;;;;0.77;0.60;;;;;;;;;;5069519;28;20048;-44
2022/05/31 14:35:48;;;;;;;1.77;0.90;;;;;;;;;;5085751;28;20064;-48
2022/05/31 14:38:23;;;;;;;1.05;0.80;;;;;;;;;;5078198;28;20129;-47
2022/05/31 14:41:03;;;;;;;0.73;0.63;;;;;;;;;;5086486;28;20024;-48
2022/05/31 14:43:32;;;;;;;0.60;0.60;;;;;;;;;;5085934;28;20016;-46
2022/05/31 14:45:58;;;;;;;0.95;0.60;;;;;;;;;;5085975;28;20567;-47
2022/05/31 14:48:25;;;;;;;;;;;;;;;;;;5085887;28;20021;-48
2022/05/31 14:50:54;;;;;;;1.65;0.80;;;;;;;;;;5085225;28;20387;-45
2022/05/31 14:53:21;;;;;;;1.08;0.70;;;;;;;;;;5085935;28;20044;-48
2022/05/31 14:55:51;;;;;;;0.73;0.68;;;;;;;;;;5086213;28;20028;-47
2022/05/31 14:58:40;;;;;;;1.27;0.68;;;;;;;;;;5086167;28;20077;-49
2022/05/31 15:01:14;;;;;;;0.90;0.68;;;;;;;;;;5089181;28;20052;-46
2022/05/31 15:03:43;;;;;;;1.23;1.00;;;;;;;;;;5089597;28;20034;-47
2022/05/31 15:06:11;;;;;;;1.15;0.90;;;;;;;;;;5087638;28;20030;-49
2022/05/31 15:08:41;;;;;;;1.17;0.90;;;;;;;;;;5067555;28;20032;-49
2022/05/31 15:19:37;;;;;;;1.27;0.80;;;;;;;;;;5087599;28;20138;-48
2022/05/31 15:22:06;;;;;;;0.95;0.70;;;;;;;;;;5067151;28;20020;-46
2022/05/31 15:24:46;;;;;;;0.85;0.80;;;;;;;;;;5067141;28;20024;-45
2022/05/31 15:27:14;;;;;;;1.30;0.77;;;;;;;;;;5069108;28;20028;-46
2022/05/31 15:29:41;;;;;;;0.50;0.50;;;;;;;;;;5067970;28;20051;-45
2022/05/31 15:32:07;;;;;;;1.10;0.80;;;;;;;;;;5077394;28;20032;-48
2022/05/31 15:34:35;;;;;;;1.17;0.77;;;;;;;;;;5079022;28;20040;-48
2022/05/31 15:37:02;;;;;;;1.05;0.80;;;;;;;;;;5069966;28;20115;-47
2022/05/31 15:39:29;;;;;;;0.73;0.68;;;;;;;;;;5073585;28;20547;-48
2022/05/31 15:41:55;;;;;;;;;;;;;;;;;;5087319;28;20101;-47
2022/05/31 15:44:21;;;;;;;;;;;;;;;;;;5084143;28;20359;-48
2022/05/31 15:46:46;;;;;;;;;;;;;;;;;;5081617;28;19908;-49
2022/05/31 15:49:13;;;;;;;;;;;;;;;;;;5071644;28;20268;-48